Time;durP1;ratioP1;P1;durP2;ratioP2;P2;SDS_P1;SDS_P2;PMS_P1;PMS_P2;Temp;Humidity;BMP_temperature;BMP_pressure;BME280_temperature;BME280_humidity;BME280_pressure;Samples;Min_cycle;Max_cycle;Signal;HPM_P1;HPM_P2
2022/09/23 06:40:50;;;;;;;3.47;1.47;;;12.80;99.90;;;;;;6220689;22;20257;-74
2022/09/23 06:43:17;;;;;;;3.47;1.67;;;13.10;99.90;;;;;;6195080;23;20175;-76
2022/09/23 06:45:44;;;;;;;6.70;2.37;;;13.30;99.90;;;;;;6195556;22;20659;-75
2022/09/23 06:48:10;;;;;;;3.70;1.97;;;13.50;99.90;;;;;;6224980;22;20174;-73
2022/09/23 06:50:37;;;;;;;8.73;2.77;;;13.80;99.90;;;;;;6224135;22;20179;-71
2022/09/23 06:53:04;;;;;;;6.23;2.30;;;14.00;99.90;;;;;;6224613;22;20206;-74
2022/09/23 06:55:31;;;;;;;7.87;2.37;;;14.30;99.90;;;;;;6225130;22;20175;-74
2022/09/23 06:57:58;;;;;;;4.73;1.90;;;14.60;99.90;;;;;;6225255;22;20195;-73
2022/09/23 07:00:25;;;;;;;5.07;2.00;;;15.00;99.90;;;;;;6224705;22;20181;-71
2022/09/23 07:02:51;;;;;;;7.23;2.20;;;15.10;99.90;;;;;;6224372;22;20178;-71
2022/09/23 07:05:18;;;;;;;4.23;1.77;;;15.20;99.90;;;;;;6223839;22;20175;-71
2022/09/23 07:07:44;;;;;;;4.67;1.93;;;15.30;99.90;;;;;;6224230;22;20194;-69
2022/09/23 07:10:11;;;;;;;6.27;2.10;;;15.20;99.90;;;;;;6224255;22;20201;-69
2022/09/23 07:12:38;;;;;;;5.03;1.77;;;15.30;99.90;;;;;;6223815;22;20677;-69
2022/09/23 07:15:05;;;;;;;3.17;1.63;;;15.30;99.90;;;;;;6224744;22;20186;-68
2022/09/23 07:17:31;;;;;;;4.93;2.10;;;15.30;99.90;;;;;;6224505;22;20290;-69
2022/09/23 07:19:58;;;;;;;8.63;2.00;;;15.50;99.90;;;;;;6224555;22;20499;-68
2022/09/23 07:22:25;;;;;;;6.17;1.97;;;15.60;99.90;;;;;;6224792;22;20175;-69
2022/09/23 07:24:54;;;;;;;5.60;2.03;;;15.80;99.90;;;;;;6224743;22;20236;-69
2022/09/23 07:27:22;;;;;;;4.70;1.70;;;15.90;99.90;;;;;;6225997;22;20291;-69
2022/09/23 07:29:49;;;;;;;4.60;2.10;;;16.00;99.90;;;;;;6225041;22;20182;-69
2022/09/23 07:32:15;;;;;;;3.23;1.60;;;16.00;99.90;;;;;;6224752;22;20209;-69
2022/09/23 07:34:43;;;;;;;4.03;1.87;;;16.10;99.90;;;;;;6224700;22;20175;-69
2022/09/23 07:37:10;;;;;;;6.97;1.70;;;16.20;99.90;;;;;;6224598;22;20671;-69
2022/09/23 07:39:38;;;;;;;3.13;1.40;;;16.10;99.90;;;;;;6224270;22;20564;-68
2022/09/23 07:42:05;;;;;;;3.20;1.50;;;16.20;99.90;;;;;;6276133;22;20194;-69
2022/09/23 07:44:32;;;;;;;4.83;1.77;;;16.20;99.90;;;;;;6276759;22;20175;-69
2022/09/23 07:47:00;;;;;;;3.57;1.37;;;16.20;99.90;;;;;;6276499;22;20194;-68
2022/09/23 07:49:27;;;;;;;4.03;1.27;;;16.20;99.90;;;;;;6276588;22;20182;-69
2022/09/23 07:51:54;;;;;;;2.20;1.10;;;16.20;99.90;;;;;;6276438;22;20189;-69
2022/09/23 07:54:21;;;;;;;3.07;1.33;;;16.30;99.90;;;;;;6276461;22;20213;-69
2022/09/23 07:56:49;;;;;;;4.80;1.70;;;16.10;99.90;;;;;;6275867;22;20205;-69
2022/09/23 07:59:17;;;;;;;3.13;1.20;;;16.10;99.90;;;;;;6276193;22;20179;-69
2022/09/23 08:01:46;;;;;;;3.77;1.60;;;16.20;99.90;;;;;;6276591;22;20175;-69
2022/09/23 08:04:16;;;;;;;3.07;1.47;;;16.30;99.90;;;;;;6276551;22;20178;-69
2022/09/23 08:06:44;;;;;;;3.37;1.50;;;16.50;99.90;;;;;;6276492;22;20205;-69
2022/09/23 08:09:11;;;;;;;4.20;1.90;;;16.50;99.90;;;;;;6275975;22;20178;-69
2022/09/23 08:11:40;;;;;;;2.57;1.30;;;16.50;99.90;;;;;;6275841;22;20511;-69
2022/09/23 08:14:09;;;;;;;2.83;1.57;;;16.50;99.90;;;;;;6276238;22;20206;-69
2022/09/23 08:16:36;;;;;;;4.03;1.73;;;16.30;99.90;;;;;;6276367;22;20195;-68
2022/09/23 08:19:03;;;;;;;7.20;1.30;;;16.40;99.90;;;;;;6276195;22;20188;-68
2022/09/23 08:21:29;;;;;;;7.23;1.57;;;16.60;99.90;;;;;;6275734;22;20181;-68
2022/09/23 08:23:56;;;;;;;8.93;2.17;;;16.70;99.90;;;;;;6275851;22;20264;-69
2022/09/23 08:26:23;;;;;;;4.37;1.60;;;16.90;99.90;;;;;;6275685;22;20587;-68
2022/09/23 08:28:53;;;;;;;3.10;1.53;;;17.20;99.90;;;;;;6276736;22;20179;-71
2022/09/23 08:31:22;;;;;;;2.93;1.53;;;17.30;99.90;;;;;;6275375;22;20218;-72
2022/09/23 08:33:54;;;;;;;4.80;1.40;;;17.40;99.90;;;;;;6277791;22;20210;-70
2022/09/23 08:36:21;;;;;;;3.83;1.70;;;17.90;99.90;;;;;;6277973;22;20195;-71
2022/09/23 08:38:48;;;;;;;3.47;1.60;;;18.00;99.90;;;;;;6278129;22;20174;-71
2022/09/23 08:41:25;;;;;;;5.50;1.50;;;18.00;99.90;;;;;;6277359;22;20217;-72
2022/09/23 08:43:57;;;;;;;3.70;1.40;;;18.10;99.90;;;;;;6277719;22;20626;-72
2022/09/23 08:46:29;;;;;;;2.70;1.40;;;18.10;99.90;;;;;;6277904;22;20674;-72
2022/09/23 08:48:58;;;;;;;6.17;1.73;;;18.20;99.90;;;;;;6277988;22;20494;-71
2022/09/23 08:51:34;;;;;;;3.78;1.60;;;18.20;99.90;;;;;;6278350;22;20197;-71
2022/09/23 08:54:01;;;;;;;5.65;1.35;;;18.20;99.90;;;;;;6277797;22;20233;-71
2022/09/23 08:56:29;;;;;;;3.80;1.47;;;18.40;99.90;;;;;;6277614;22;20199;-71
2022/09/23 08:59:02;;;;;;;4.45;1.95;;;18.50;99.90;;;;;;6277689;22;20644;-72
2022/09/23 09:01:37;;;;;;;5.18;1.60;;;18.60;99.90;;;;;;6277656;22;20175;-72
2022/09/23 09:04:15;;;;;;;4.57;1.48;;;18.70;99.90;;;;;;6276972;22;20175;-71
2022/09/23 09:06:46;;;;;;;3.15;1.58;;;19.00;99.90;;;;;;6277727;22;20201;-71
2022/09/23 09:09:23;;;;;;;5.93;1.52;;;19.00;99.90;;;;;;6277330;22;20658;-70
2022/09/23 09:11:56;;;;;;;4.50;1.70;;;19.00;99.90;;;;;;6277816;22;20182;-71
2022/09/23 09:14:26;;;;;;;3.22;1.40;;;18.80;99.90;;;;;;6277847;22;20206;-72
2022/09/23 09:17:02;;;;;;;3.15;1.60;;;18.70;99.90;;;;;;6277742;22;20199;-71
2022/09/23 09:19:50;;;;;;;4.85;1.30;;;18.70;99.90;;;;;;6277418;22;20182;-72
2022/09/23 09:22:24;;;;;;;4.28;1.70;;;19.00;99.90;;;;;;6277321;22;20181;-70
2022/09/23 09:24:57;;;;;;;3.70;1.50;;;19.30;99.90;;;;;;6277634;22;20546;-72
2022/09/23 09:27:24;;;;;;;2.47;1.30;;;19.50;99.90;;;;;;6277289;22;20202;-68
2022/09/23 09:29:54;;;;;;;8.50;2.22;;;19.60;99.90;;;;;;6277392;22;20233;-69
2022/09/23 09:32:33;;;;;;;3.13;1.73;;;19.70;99.90;;;;;;6276999;22;20179;-67
2022/09/23 09:35:07;;;;;;;3.35;1.40;;;19.90;99.90;;;;;;6277123;22;20309;-68
2022/09/23 09:37:41;;;;;;;3.55;1.48;;;20.00;99.90;;;;;;6276957;22;20335;-69
2022/09/23 09:40:11;;;;;;;3.00;1.10;;;20.10;99.90;;;;;;6277033;22;20182;-69
2022/09/23 09:42:40;;;;;;;2.78;1.33;;;20.10;99.90;;;;;;6276975;22;20183;-68
2022/09/23 09:45:18;;;;;;;4.97;1.50;;;20.00;99.90;;;;;;6276953;22;20503;-68
2022/09/23 09:47:51;;;;;;;3.72;1.90;;;19.90;99.90;;;;;;6277489;22;20230;-67
2022/09/23 09:50:39;;;;;;;4.60;1.55;;;19.90;99.90;;;;;;6277170;22;20185;-68
2022/09/23 09:53:16;;;;;;;6.13;1.48;;;20.10;99.90;;;;;;6276773;22;20202;-69
2022/09/23 09:55:43;;;;;;;3.50;1.63;;;20.10;99.90;;;;;;6276635;22;20363;-69
2022/09/23 09:58:15;;;;;;;3.05;1.52;;;20.30;99.90;;;;;;6276958;22;20179;-69
2022/09/23 10:00:44;;;;;;;4.30;1.55;;;20.10;99.90;;;;;;6277411;22;20228;-69
2022/09/23 10:03:37;;;;;;;5.80;1.70;;;20.00;99.90;;;;;;6277218;22;20209;-67
2022/09/23 10:06:16;;;;;;;3.67;1.20;;;20.10;99.90;;;;;;6260263;22;20205;-68
2022/09/23 10:08:49;;;;;;;3.72;1.67;;;20.30;99.90;;;;;;6277464;22;20182;-68
2022/09/23 10:11:18;;;;;;;3.03;1.17;;;20.50;99.90;;;;;;6277354;22;20179;-67
2022/09/23 10:14:03;;;;;;;3.47;1.48;;;20.30;99.90;;;;;;6277421;22;20527;-67
2022/09/23 10:16:31;;;;;;;3.80;1.20;;;20.60;99.90;;;;;;6277088;22;20203;-67
2022/09/23 10:19:01;;;;;;;7.03;1.77;;;20.70;99.90;;;;;;6277411;22;20289;-68
2022/09/23 10:21:34;;;;;;;2.17;1.23;;;20.70;99.90;;;;;;6276764;22;20175;-67
2022/09/23 10:24:05;;;;;;;5.38;2.05;;;20.60;99.90;;;;;;6277198;22;20178;-67
2022/09/23 10:26:35;;;;;;;2.70;1.75;;;20.60;99.90;;;;;;6276989;22;20195;-68
2022/09/23 10:29:03;;;;;;;5.38;1.70;;;20.60;99.90;;;;;;6277326;22;20210;-68
2022/09/23 10:31:32;;;;;;;3.58;1.83;;;20.60;99.90;;;;;;6277347;22;20174;-67
2022/09/23 10:34:01;;;;;;;5.32;1.60;;;20.60;99.90;;;;;;6276712;22;20685;-67
2022/09/23 10:36:30;;;;;;;4.63;1.50;;;20.60;99.90;;;;;;6276989;22;20278;-67
2022/09/23 10:46:37;;;;;;;2.90;1.65;;;20.40;99.90;;;;;;6277191;22;20180;-67
2022/09/23 10:47:58;;;;;;;2.83;1.40;;;20.70;99.90;;;;;;6246262;22;20202;-68
2022/09/23 10:50:37;;;;;;;2.80;1.52;;;21.10;99.90;;;;;;6245954;23;20198;-67
2022/09/23 10:53:14;;;;;;;2.90;1.10;;;21.20;99.90;;;;;;6245775;23;20218;-67
2022/09/23 10:55:55;;;;;;;3.85;1.33;;;21.20;99.90;;;;;;6245933;22;20223;-67
2022/09/23 10:59:07;;;;;;;3.35;1.35;;;21.50;99.90;;;;;;6245834;23;20632;-67
2022/09/23 11:01:47;;;;;;;2.50;1.00;;;21.60;99.90;;;;;;6174906;23;20748;-67
2022/09/23 11:04:33;;;;;;;4.80;1.35;;;21.60;99.90;;;;;;6246366;23;20175;-67
2022/09/23 11:07:12;;;;;;;3.00;1.38;;;21.80;99.90;;;;;;6246254;22;20195;-67
2022/09/23 11:09:51;;;;;;;2.17;1.25;;;21.50;99.90;;;;;;6246066;23;20179;-67
2022/09/23 11:12:30;;;;;;;3.65;1.40;;;21.30;99.90;;;;;;6245462;23;20179;-67
2022/09/23 11:15:15;;;;;;;2.95;1.60;;;21.20;99.90;;;;;;6245733;23;20207;-67
2022/09/23 11:18:15;;;;;;;5.03;1.63;;;21.30;99.90;;;;;;6246212;22;20195;-67
2022/09/23 11:20:53;;;;;;;5.53;3.03;;;21.10;99.90;;;;;;6245660;23;20564;-67
2022/09/23 11:23:42;;;;;;;4.20;1.80;;;21.00;99.90;;;;;;6245972;23;20187;-67
2022/09/23 11:26:23;;;;;;;3.05;1.40;;;21.20;99.90;;;;;;6245753;22;20225;-67
2022/09/23 11:29:13;;;;;;;2.65;1.58;;;21.20;99.90;;;;;;6240157;23;20258;-67
2022/09/23 11:31:52;;;;;;;2.22;1.27;;;21.20;99.90;;;;;;6245416;23;20633;-67
2022/09/23 11:35:01;;;;;;;6.75;1.77;;;21.40;99.90;;;;;;6245882;23;20229;-66
2022/09/23 11:37:32;;;;;;;3.53;1.75;;;21.50;99.90;;;;;;6245923;22;20200;-67
2022/09/23 11:40:04;;;;;;;4.13;1.98;;;21.70;99.90;;;;;;6255763;22;20189;-67
2022/09/23 11:42:35;;;;;;;2.75;1.65;;;21.70;99.90;;;;;;6276459;22;20262;-67
2022/09/23 11:45:12;;;;;;;5.13;1.90;;;21.60;99.90;;;;;;6276544;22;20499;-67
2022/09/23 11:47:43;;;;;;;3.03;1.83;;;21.60;99.90;;;;;;6276636;22;20198;-67
2022/09/23 11:50:18;;;;;;;4.03;2.13;;;21.40;99.90;;;;;;6275469;22;20174;-67
2022/09/23 11:52:50;;;;;;;3.35;1.75;;;21.50;99.90;;;;;;6275626;22;20702;-67
2022/09/23 11:55:24;;;;;;;2.70;1.70;;;21.50;99.90;;;;;;6275658;22;20289;-67
2022/09/23 11:57:53;;;;;;;2.95;1.50;;;21.30;99.90;;;;;;6275770;22;20201;-67
2022/09/23 12:00:21;;;;;;;4.03;1.65;;;21.40;99.90;;;;;;6276329;22;20183;-67
2022/09/23 12:02:59;;;;;;;4.53;1.98;;;21.30;99.90;;;;;;6277589;22;20178;-67
2022/09/23 12:05:30;;;;;;;4.40;1.90;;;21.10;99.90;;;;;;6278222;22;20185;-67
2022/09/23 12:08:02;;;;;;;6.50;1.95;;;21.00;99.90;;;;;;6277840;22;20218;-67
2022/09/23 12:10:43;;;;;;;3.85;2.00;;;21.00;99.90;;;;;;6277952;22;20178;-67
2022/09/23 12:13:16;;;;;;;6.25;1.98;;;21.10;99.90;;;;;;6277901;22;20186;-67
2022/09/23 12:15:56;;;;;;;2.85;1.60;;;21.40;99.90;;;;;;6278585;22;20202;-67
2022/09/23 12:18:51;;;;;;;4.05;2.00;;;21.30;99.90;;;;;;6278416;22;20175;-67
2022/09/23 12:21:38;;;;;;;4.13;1.80;;;21.20;99.90;;;;;;6274200;22;20179;-68
2022/09/23 12:24:27;;;;;;;3.78;2.00;;;21.40;99.90;;;;;;6278260;22;20175;-68
2022/09/23 12:27:00;;;;;;;4.07;1.83;;;21.30;99.90;;;;;;6277462;22;20205;-69
2022/09/23 12:29:30;;;;;;;3.72;1.77;;;21.30;99.90;;;;;;6277818;22;20179;-68
2022/09/23 12:31:58;;;;;;;4.10;1.58;;;21.40;99.90;;;;;;6277672;22;20231;-68
2022/09/23 12:34:29;;;;;;;5.43;1.98;;;21.60;99.90;;;;;;6276761;22;20209;-68
2022/09/23 12:37:02;;;;;;;3.55;1.73;;;21.60;99.90;;;;;;6278407;22;20195;-68
2022/09/23 12:39:31;;;;;;;3.85;1.83;;;21.40;99.90;;;;;;6276821;22;20182;-68
2022/09/23 12:42:02;;;;;;;4.53;2.10;;;21.20;99.90;;;;;;6277109;22;20174;-69
2022/09/23 12:44:40;;;;;;;5.95;1.77;;;21.20;99.90;;;;;;6277924;22;20175;-68
2022/09/23 12:47:37;;;;;;;6.13;1.45;;;21.00;99.90;;;;;;6277397;22;20194;-69
2022/09/23 12:50:37;;;;;;;5.65;1.60;;;21.00;99.90;;;;;;6192959;22;20266;-68
2022/09/23 12:53:52;;;;;;;3.95;1.73;;;20.80;99.90;;;;;;6277467;22;20179;-68
2022/09/23 12:56:22;;;;;;;3.88;1.83;;;20.90;99.90;;;;;;6277200;22;20206;-68
2022/09/23 12:59:00;;;;;;;4.90;2.00;;;21.00;99.90;;;;;;6277457;22;20175;-68
2022/09/23 13:01:28;;;;;;;4.03;1.73;;;20.90;99.90;;;;;;6277555;22;20253;-69
2022/09/23 13:06:43;;;;;;;5.15;1.83;;;20.80;99.90;;;;;;6276361;22;20225;-69
2022/09/23 13:09:16;;;;;;;4.50;2.05;;;21.00;99.90;;;;;;6276810;22;20650;-67
2022/09/23 13:11:46;;;;;;;4.18;1.90;;;21.20;99.90;;;;;;6276207;22;20792;-69
2022/09/23 13:14:20;;;;;;;3.15;1.60;;;21.10;99.90;;;;;;6275838;22;20205;-68
2022/09/23 13:16:48;;;;;;;4.30;2.20;;;21.10;99.90;;;;;;6275659;22;20201;-69
2022/09/23 13:19:48;;;;;;;4.18;1.90;;;21.10;99.90;;;;;;6276344;22;20175;-69
2022/09/23 13:22:56;;;;;;;6.60;2.40;;;21.30;99.90;;;;;;6275906;22;21102;-68
2022/09/23 13:25:26;;;;;;;3.75;1.92;;;21.20;99.90;;;;;;6211349;22;20643;-68
2022/09/23 13:27:55;;;;;;;5.75;2.42;;;21.10;99.90;;;;;;6275002;22;20194;-70
2022/09/23 13:30:25;;;;;;;3.88;1.90;;;21.00;99.90;;;;;;6276045;22;20571;-68
2022/09/23 13:33:03;;;;;;;4.22;1.83;;;21.10;99.90;;;;;;6276415;22;20179;-68
2022/09/23 13:35:32;;;;;;;3.83;1.80;;;21.00;99.90;;;;;;6275055;22;20206;-68
2022/09/23 13:38:09;;;;;;;5.15;1.60;;;21.00;99.90;;;;;;6277278;22;20198;-68
2022/09/23 13:40:36;;;;;;;4.97;2.00;;;21.10;99.90;;;;;;6277045;22;20554;-68
2022/09/23 13:43:06;;;;;;;6.15;1.55;;;21.30;99.90;;;;;;6276813;22;20653;-68
2022/09/23 13:45:41;;;;;;;3.00;1.80;;;21.50;99.90;;;;;;6276884;22;20631;-68
2022/09/23 13:48:12;;;;;;;5.95;1.65;;;21.50;99.90;;;;;;6277290;22;20182;-68
2022/09/23 13:50:42;;;;;;;2.47;1.50;;;21.50;99.90;;;;;;6277580;22;20181;-69
2022/09/23 13:53:13;;;;;;;3.33;1.95;;;21.40;99.90;;;;;;6277018;22;20658;-69
2022/09/23 13:55:40;;;;;;;5.07;1.88;;;21.50;99.90;;;;;;6277417;22;20256;-68
2022/09/23 13:58:17;;;;;;;1.80;1.63;;;21.40;99.90;;;;;;6277227;22;20175;-68
2022/09/23 14:00:46;;;;;;;4.40;1.63;;;21.30;99.90;;;;;;6277562;22;20179;-68
2022/09/23 14:03:29;;;;;;;2.28;1.50;;;21.20;99.90;;;;;;6277661;22;20179;-68
2022/09/23 14:05:56;;;;;;;2.45;1.30;;;21.10;99.90;;;;;;6277575;22;20232;-68
2022/09/23 14:08:24;;;;;;;3.60;1.75;;;21.00;99.90;;;;;;6277307;22;20181;-68
2022/09/23 14:10:52;;;;;;;3.42;1.70;;;20.90;99.90;;;;;;6276919;22;20614;-68
2022/09/23 14:13:23;;;;;;;3.33;2.15;;;21.10;99.90;;;;;;6277410;22;20175;-68
2022/09/23 14:15:53;;;;;;;2.22;1.60;;;21.10;99.90;;;;;;6276501;22;20210;-68
2022/09/23 14:18:31;;;;;;;6.20;2.83;;;21.00;99.90;;;;;;6277405;22;20498;-68
2022/09/23 14:20:58;;;;;;;5.28;1.83;;;21.10;99.90;;;;;;6276930;22;20179;-68
2022/09/23 14:23:25;;;;;;;4.75;1.98;;;21.00;99.90;;;;;;6276925;22;20186;-68
2022/09/23 14:25:53;;;;;;;4.78;1.85;;;20.70;99.90;;;;;;6276532;22;20181;-68
2022/09/23 14:28:22;;;;;;;3.63;1.83;;;20.70;99.90;;;;;;6277009;22;20186;-69
2022/09/23 14:30:55;;;;;;;2.40;1.52;;;20.70;99.90;;;;;;6277178;22;20754;-68
2022/09/23 14:33:25;;;;;;;3.38;1.85;;;20.70;99.90;;;;;;6277197;22;20174;-68
2022/09/23 14:35:54;;;;;;;3.55;1.90;;;20.40;99.90;;;;;;6276720;22;20213;-69
2022/09/23 14:41:20;;;;;;;3.15;1.90;;;20.60;99.90;;;;;;6276790;22;20185;-68
2022/09/23 14:43:54;;;;;;;3.22;1.90;;;20.60;99.90;;;;;;6276238;22;20174;-68
2022/09/23 14:46:24;;;;;;;3.45;1.60;;;20.80;99.90;;;;;;6276925;22;20274;-68
2022/09/23 14:49:06;;;;;;;3.15;1.92;;;20.60;99.90;;;;;;6275631;22;20265;-68
2022/09/23 14:51:47;;;;;;;2.45;1.60;;;20.60;99.90;;;;;;6276192;22;20587;-68
2022/09/23 14:54:37;;;;;;;2.55;1.50;;;20.50;99.90;;;;;;6276431;22;20175;-67
2022/09/23 14:57:22;;;;;;;3.35;1.70;;;20.30;99.90;;;;;;6276213;22;20201;-68
2022/09/23 14:59:52;;;;;;;5.47;1.60;;;20.40;99.90;;;;;;6276592;22;20189;-68
2022/09/23 15:02:36;;;;;;;3.45;1.92;;;20.40;99.90;;;;;;6275680;22;20174;-68
2022/09/23 15:05:15;;;;;;;5.25;1.70;;;20.30;99.90;;;;;;6276082;22;20178;-68
2022/09/23 15:07:44;;;;;;;2.47;1.50;;;20.50;99.90;;;;;;6274980;22;20199;-68
2022/09/23 15:10:18;;;;;;;2.47;1.50;;;20.60;99.90;;;;;;6276462;22;20186;-68
2022/09/23 15:12:49;;;;;;;3.47;1.27;;;20.50;99.90;;;;;;6276650;22;20179;-68
2022/09/23 15:15:17;;;;;;;6.47;1.50;;;20.50;99.90;;;;;;6276224;22;20225;-68
2022/09/23 15:17:45;;;;;;;4.82;2.35;;;20.50;99.90;;;;;;6275950;22;20195;-68
2022/09/23 15:20:19;;;;;;;6.55;4.57;;;20.30;99.90;;;;;;6275636;22;20628;-69
2022/09/23 15:22:48;;;;;;;6.75;1.98;;;20.20;99.90;;;;;;6276138;22;20657;-69
2022/09/23 15:25:18;;;;;;;4.50;1.65;;;20.20;99.90;;;;;;6276345;22;20179;-69
2022/09/23 15:28:01;;;;;;;4.90;1.67;;;20.30;99.90;;;;;;6275967;22;20275;-69
2022/09/23 15:30:29;;;;;;;5.78;2.83;;;20.30;99.90;;;;;;6276249;22;20179;-69
2022/09/23 15:32:57;;;;;;;4.32;2.15;;;20.30;99.90;;;;;;6276289;22;20213;-69
2022/09/23 15:35:25;;;;;;;2.70;1.63;;;20.30;99.90;;;;;;6276242;22;20228;-69
2022/09/23 15:37:55;;;;;;;6.90;3.60;;;20.10;99.90;;;;;;6276013;22;20321;-69
2022/09/23 15:40:24;;;;;;;4.35;2.22;;;20.10;99.90;;;;;;6275669;22;20182;-69
2022/09/23 15:42:54;;;;;;;3.67;2.42;;;20.20;99.90;;;;;;6276089;22;20257;-69
2022/09/23 15:45:28;;;;;;;5.60;2.25;;;20.20;99.90;;;;;;6276314;22;20183;-67
2022/09/23 15:47:58;;;;;;;2.65;1.58;;;20.20;99.90;;;;;;6276176;22;20201;-66
2022/09/23 15:50:27;;;;;;;2.88;1.63;;;20.20;99.90;;;;;;6276049;22;20174;-67
2022/09/23 15:52:54;;;;;;;2.72;1.50;;;20.00;99.90;;;;;;6276154;22;20190;-67
2022/09/23 15:55:22;;;;;;;2.15;1.48;;;20.00;99.90;;;;;;6275427;22;20213;-67
2022/09/23 15:57:49;;;;;;;2.55;1.40;;;19.90;99.90;;;;;;6276439;22;20195;-67
2022/09/23 16:00:16;;;;;;;5.93;3.67;;;20.00;99.90;;;;;;6276492;22;20181;-67
2022/09/23 16:02:45;;;;;;;2.65;1.88;;;19.90;99.90;;;;;;6276142;22;21246;-67
2022/09/23 16:05:19;;;;;;;2.85;1.67;;;19.90;99.90;;;;;;6276407;22;20181;-69
2022/09/23 16:07:51;;;;;;;3.08;1.60;;;19.80;99.90;;;;;;6275936;22;20256;-67
2022/09/23 16:10:19;;;;;;;3.08;1.30;;;19.80;99.90;;;;;;6276233;22;20202;-66
2022/09/23 16:12:46;;;;;;;2.30;1.40;;;19.70;99.90;;;;;;6276033;22;20205;-70
2022/09/23 16:15:16;;;;;;;1.80;1.30;;;19.60;99.90;;;;;;6275746;22;20663;-69
2022/09/23 16:17:43;;;;;;;3.63;1.42;;;19.50;99.90;;;;;;6276123;22;20201;-69
2022/09/23 16:20:11;;;;;;;3.00;1.90;;;19.50;99.90;;;;;;6276048;22;20179;-70
2022/09/23 16:22:38;;;;;;;3.53;1.65;;;19.50;99.90;;;;;;6276326;22;20489;-69
2022/09/23 16:25:11;;;;;;;4.90;1.60;;;19.50;99.90;;;;;;6276063;22;20202;-65
2022/09/23 16:27:38;;;;;;;2.70;1.48;;;19.50;99.90;;;;;;6275377;22;20198;-71
2022/09/23 16:30:06;;;;;;;2.72;1.58;;;19.40;99.90;;;;;;6275896;22;20203;-69
2022/09/23 16:32:33;;;;;;;2.85;1.90;;;19.50;99.90;;;;;;6276107;22;20204;-66
2022/09/23 16:35:00;;;;;;;3.08;1.80;;;19.50;99.90;;;;;;6276257;22;20175;-68
2022/09/23 16:37:27;;;;;;;3.75;1.77;;;19.40;99.90;;;;;;6276156;22;20201;-69
2022/09/23 16:39:54;;;;;;;3.17;1.70;;;19.30;99.90;;;;;;6275487;22;20187;-69
2022/09/23 16:42:22;;;;;;;8.77;1.80;;;19.30;99.90;;;;;;6275775;22;20190;-65
2022/09/23 16:44:49;;;;;;;3.10;1.80;;;19.20;99.90;;;;;;6275838;22;20600;-67
2022/09/23 16:47:16;;;;;;;2.97;1.75;;;19.00;99.90;;;;;;6275637;22;20195;-69
2022/09/23 16:49:42;;;;;;;4.20;1.95;;;19.00;99.90;;;;;;6276712;22;20175;-66
2022/09/23 16:52:10;;;;;;;2.72;1.80;;;18.90;99.90;;;;;;6277303;22;20179;-65
2022/09/23 16:54:37;;;;;;;3.85;1.95;;;18.90;99.90;;;;;;6277471;22;20714;-67
2022/09/23 16:57:04;;;;;;;2.58;1.80;;;18.80;99.90;;;;;;6277592;22;20218;-71
2022/09/23 17:04:57;;;;;;;2.53;1.80;;;18.50;99.90;;;;;;6277447;22;20492;-67
2022/09/23 17:07:23;;;;;;;2.92;1.80;;;18.50;99.90;;;;;;6277859;22;20282;-68
2022/09/23 17:09:51;;;;;;;3.42;2.00;;;18.60;99.90;;;;;;6277901;22;20175;-69
2022/09/23 17:12:25;;;;;;;2.72;1.80;;;18.50;99.90;;;;;;6277719;22;20175;-71
2022/09/23 17:14:53;;;;;;;2.35;1.70;;;18.40;99.90;;;;;;6277250;22;20615;-71
2022/09/23 17:17:21;;;;;;;3.88;2.08;;;18.40;99.90;;;;;;6274863;22;20215;-70
2022/09/23 17:19:47;;;;;;;3.75;1.73;;;18.30;99.90;;;;;;6275337;22;20667;-70
2022/09/23 17:22:14;;;;;;;4.88;1.98;;;18.30;99.90;;;;;;6276511;22;20175;-71
2022/09/23 17:24:41;;;;;;;3.63;2.20;;;18.20;99.90;;;;;;6276756;22;20181;-67
2022/09/23 17:27:08;;;;;;;3.40;2.10;;;18.10;99.90;;;;;;6276578;22;20260;-70
2022/09/23 17:29:35;;;;;;;3.47;2.03;;;18.00;99.90;;;;;;6276731;22;20179;-70
2022/09/23 17:32:04;;;;;;;3.60;2.57;;;17.80;99.90;;;;;;6276691;22;20175;-67
2022/09/23 17:34:32;;;;;;;8.40;2.90;;;17.80;99.90;;;;;;6276422;22;20178;-69
2022/09/23 17:36:59;;;;;;;5.83;2.80;;;17.70;99.90;;;;;;6275651;22;20666;-68
2022/09/23 17:39:26;;;;;;;5.43;2.97;;;17.70;99.90;;;;;;6276231;22;20248;-69
2022/09/23 17:41:54;;;;;;;3.67;2.50;;;17.70;99.90;;;;;;6276780;22;20178;-68
2022/09/23 17:44:23;;;;;;;8.20;4.23;;;17.60;99.90;;;;;;6276439;22;20175;-66
2022/09/23 17:46:49;;;;;;;6.73;2.70;;;17.50;99.90;;;;;;6276049;22;20674;-69
2022/09/23 17:49:18;;;;;;;4.50;3.00;;;17.50;99.90;;;;;;6276723;22;20179;-66
2022/09/23 17:51:44;;;;;;;3.73;2.80;;;17.40;99.90;;;;;;6277227;22;20240;-69
2022/09/23 17:54:13;;;;;;;5.03;3.27;;;17.40;99.90;;;;;;6276242;22;20600;-69
2022/09/23 17:56:41;;;;;;;5.70;2.23;;;17.40;99.90;;;;;;6275902;22;20289;-66
2022/09/23 17:59:11;;;;;;;6.43;2.47;;;17.30;99.90;;;;;;6276226;22;20183;-69
2022/09/23 18:01:38;;;;;;;6.43;2.93;;;17.30;99.90;;;;;;6249004;22;20224;-68
2022/09/23 18:04:05;;;;;;;5.30;3.07;;;17.20;99.90;;;;;;6277269;22;20175;-67
2022/09/23 18:06:35;;;;;;;4.73;2.83;;;17.20;99.90;;;;;;6275191;22;20194;-70
2022/09/23 18:09:04;;;;;;;5.93;3.07;;;17.10;99.90;;;;;;6277467;22;20590;-68
2022/09/23 18:11:32;;;;;;;7.83;3.57;;;17.10;99.90;;;;;;6275920;22;20496;-70
2022/09/23 18:14:01;;;;;;;5.57;3.37;;;17.10;99.90;;;;;;6276064;22;20186;-67
2022/09/23 18:16:30;;;;;;;6.70;3.73;;;17.10;99.90;;;;;;6275714;22;20217;-65
2022/09/23 18:18:59;;;;;;;7.97;4.27;;;17.10;99.90;;;;;;6276154;22;20177;-65
2022/09/23 18:21:27;;;;;;;7.90;4.27;;;17.00;99.90;;;;;;6275920;22;20628;-68
2022/09/23 18:23:56;;;;;;;7.83;3.90;;;17.00;99.90;;;;;;6276374;22;20175;-69
2022/09/23 18:26:25;;;;;;;5.97;3.53;;;17.00;99.90;;;;;;6275796;22;20257;-71
2022/09/23 18:28:55;;;;;;;6.13;3.80;;;16.90;99.90;;;;;;6274442;22;20183;-71
2022/09/23 18:31:23;;;;;;;6.63;4.00;;;16.90;99.90;;;;;;6274019;22;20175;-66
2022/09/23 18:33:51;;;;;;;8.93;4.93;;;16.80;99.90;;;;;;6275649;22;20178;-69
2022/09/23 18:36:18;;;;;;;6.93;4.33;;;16.70;99.90;;;;;;6274633;22;20206;-66
2022/09/23 18:38:45;;;;;;;7.03;4.27;;;16.70;99.90;;;;;;6274516;22;20179;-67
2022/09/23 18:41:13;;;;;;;7.20;4.37;;;16.60;99.90;;;;;;6272832;22;20241;-67
2022/09/23 18:43:40;;;;;;;9.23;4.80;;;16.50;99.90;;;;;;6274803;22;20175;-67
2022/09/23 18:46:10;;;;;;;7.87;4.60;;;16.50;99.90;;;;;;6275139;22;20548;-68
2022/09/23 18:51:24;;;;;;;10.00;4.67;;;16.50;99.90;;;;;;6274691;22;20258;-68
2022/09/23 18:53:56;;;;;;;8.77;4.40;;;16.50;99.90;;;;;;6274688;22;20635;-69
2022/09/23 18:56:25;;;;;;;8.00;4.30;;;16.50;99.90;;;;;;6275507;22;20288;-68
2022/09/23 18:58:54;;;;;;;7.77;4.37;;;16.50;99.90;;;;;;6275720;22;20174;-68
2022/09/23 19:01:22;;;;;;;6.33;4.03;;;16.40;99.90;;;;;;6275884;22;20174;-68
2022/09/23 19:03:53;;;;;;;6.20;4.90;;;16.40;99.90;;;;;;6276288;22;20175;-67
2022/09/23 19:06:20;;;;;;;5.97;4.10;;;16.40;99.90;;;;;;6276061;22;20205;-67
2022/09/23 19:08:51;;;;;;;8.63;4.97;;;16.40;99.90;;;;;;6273384;22;20507;-68
2022/09/23 19:11:18;;;;;;;7.87;5.10;;;16.40;99.90;;;;;;6273608;22;20179;-67
2022/09/23 19:13:46;;;;;;;9.50;4.63;;;16.30;99.90;;;;;;6275232;22;20175;-69
2022/09/23 19:16:15;;;;;;;7.83;4.57;;;16.30;99.90;;;;;;6276155;22;20206;-68
2022/09/23 19:18:45;;;;;;;6.47;4.10;;;16.30;99.90;;;;;;6275873;22;20175;-67
2022/09/23 19:21:13;;;;;;;7.20;4.37;;;16.20;99.90;;;;;;6275611;22;20183;-67
2022/09/23 19:23:45;;;;;;;6.57;4.17;;;16.10;99.90;;;;;;6274986;22;20627;-69
2022/09/23 19:26:14;;;;;;;7.73;3.93;;;16.20;99.90;;;;;;6275560;22;20281;-66
2022/09/23 19:28:41;;;;;;;6.73;4.10;;;16.00;99.90;;;;;;6275289;22;20237;-68
2022/09/23 19:31:15;;;;;;;6.13;4.40;;;16.10;99.90;;;;;;6274128;22;20179;-68
2022/09/23 19:33:43;;;;;;;8.70;4.73;;;16.20;99.90;;;;;;6274715;22;20185;-67
2022/09/23 19:36:10;;;;;;;9.17;5.17;;;16.20;99.90;;;;;;6275192;22;20206;-67
2022/09/23 19:38:38;;;;;;;8.17;4.97;;;16.20;99.90;;;;;;6275568;22;20197;-68
2022/09/23 19:41:06;;;;;;;8.40;5.17;;;16.20;99.90;;;;;;6275603;22;20179;-65
2022/09/23 19:43:35;;;;;;;7.63;4.50;;;16.20;99.90;;;;;;6275615;22;20202;-67
2022/09/23 19:46:02;;;;;;;8.60;5.23;;;16.20;99.90;;;;;;6287879;22;20221;-68
2022/09/23 19:48:30;;;;;;;6.70;4.70;;;16.00;99.90;;;;;;6306070;22;20173;-68
2022/09/23 19:50:57;;;;;;;7.77;4.80;;;16.10;99.90;;;;;;6306214;22;20317;-66
2022/09/23 19:53:24;;;;;;;8.03;5.10;;;16.00;99.90;;;;;;6304297;22;20809;-67
2022/09/23 19:55:52;;;;;;;8.73;5.70;;;16.00;99.90;;;;;;6303485;22;20197;-68
2022/09/23 19:58:19;;;;;;;8.57;5.07;;;16.00;99.90;;;;;;6278072;22;20566;-66
2022/09/23 20:00:46;;;;;;;9.53;5.77;;;16.00;99.90;;;;;;6303953;22;20503;-69
2022/09/23 20:03:13;;;;;;;10.10;6.43;;;15.90;99.90;;;;;;6305677;22;20182;-66
2022/09/23 20:05:41;;;;;;;10.57;6.10;;;15.90;99.90;;;;;;6306053;22;20256;-67
2022/09/23 20:08:07;;;;;;;9.87;6.13;;;15.90;99.90;;;;;;6306029;22;20204;-68